Time;durP1;ratioP1;P1;durP2;ratioP2;P2;SDS_P1;SDS_P2;PMS_P1;PMS_P2;Temp;Humidity;BMP_temperature;BMP_pressure;BME280_temperature;BME280_humidity;BME280_pressure;Samples;Min_cycle;Max_cycle;Signal;HPM_P1;HPM_P2
2023/03/03 06:53:45;;;;;;;20.00;10.63;;;;;;;;;;10708618;27;20389;-80
2023/03/03 06:58:46;;;;;;;16.75;8.95;;;;;;;;;;10679410;27;20046;-79
2023/03/03 07:03:47;;;;;;;14.70;8.70;;;;;;;;;;10679661;27;20083;-80
2023/03/03 07:08:48;;;;;;;17.77;9.80;;;;;;;;;;10677800;27;20026;-79
2023/03/03 07:13:50;;;;;;;13.48;7.80;;;;;;;;;;10679022;27;20384;-79
2023/03/03 07:19:02;;;;;;;13.40;7.80;;;;;;;;;;10698273;27;20031;-79
2023/03/03 07:24:16;;;;;;;17.85;10.38;;;;;;;;;;10708067;27;20068;-79
2023/03/03 07:29:25;;;;;;;19.58;11.18;;;;;;;;;;10708973;27;20018;-79
2023/03/03 07:34:37;;;;;;;28.00;15.30;;;;;;;;;;10693499;27;20035;-80
2023/03/03 07:39:39;;;;;;;32.30;13.85;;;;;;;;;;10674819;27;20054;-82
2023/03/03 07:44:40;;;;;;;12.30;7.20;;;;;;;;;;10672577;27;20094;-82
2023/03/03 07:49:42;;;;;;;15.15;9.40;;;;;;;;;;10674074;27;20034;-82
2023/03/03 07:54:44;;;;;;;;;;;;;;;;;;10673108;27;20027;-81
2023/03/03 07:59:49;;;;;;;12.30;7.38;;;;;;;;;;10683150;27;19907;-83
2023/03/03 08:04:51;;;;;;;15.40;8.88;;;;;;;;;;10655117;27;20023;-82
2023/03/03 08:10:01;;;;;;;19.35;11.32;;;;;;;;;;10659158;27;20023;-80
2023/03/03 08:15:32;;;;;;;22.10;12.23;;;;;;;;;;10666097;27;20648;-81
2023/03/03 08:20:38;;;;;;;19.47;12.13;;;;;;;;;;10629733;27;20043;-81
2023/03/03 08:25:41;;;;;;;22.45;11.93;;;;;;;;;;10642862;27;20023;-81
2023/03/03 08:30:42;;;;;;;18.88;10.57;;;;;;;;;;10648115;27;20034;-81
2023/03/03 08:35:43;;;;;;;21.55;11.32;;;;;;;;;;10655493;27;20034;-82
2023/03/03 08:40:45;;;;;;;18.80;10.85;;;;;;;;;;10643089;27;20023;-82
2023/03/03 08:45:47;;;;;;;16.65;9.68;;;;;;;;;;10643464;27;20059;-81
2023/03/03 08:50:48;;;;;;;17.95;8.95;;;;;;;;;;10641530;27;20028;-81
2023/03/03 08:55:49;;;;;;;16.33;9.18;;;;;;;;;;10642632;27;20023;-82
2023/03/03 09:00:51;;;;;;;;;;;;;;;;;;10642568;27;20098;-81
2023/03/03 09:05:52;;;;;;;15.73;8.93;;;;;;;;;;10639722;27;19910;-82
2023/03/03 09:10:53;;;;;;;18.05;8.15;;;;;;;;;;10641372;27;20030;-82
2023/03/03 09:15:56;;;;;;;15.70;8.23;;;;;;;;;;10640720;27;20027;-82
2023/03/03 09:20:57;;;;;;;13.25;8.10;;;;;;;;;;10640537;27;20477;-82
2023/03/03 09:26:03;;;;;;;14.07;7.03;;;;;;;;;;10642664;27;20086;-83
2023/03/03 09:31:17;;;;;;;13.15;7.82;;;;;;;;;;10641573;27;20527;-82
2023/03/03 09:36:21;;;;;;;12.65;7.65;;;;;;;;;;10649485;27;20022;-80
2023/03/03 09:41:39;;;;;;;15.52;8.25;;;;;;;;;;10674946;27;20023;-80
2023/03/03 09:46:43;;;;;;;14.32;8.40;;;;;;;;;;10638169;27;20034;-80
2023/03/03 09:51:47;;;;;;;14.80;9.52;;;;;;;;;;10637819;27;20034;-81
2023/03/03 09:56:55;;;;;;;11.57;7.65;;;;;;;;;;10632389;27;20023;-79
2023/03/03 10:02:21;;;;;;;13.80;8.27;;;;;;;;;;10631930;27;20023;-79
2023/03/03 10:07:40;;;;;;;13.73;8.07;;;;;;;;;;10641360;27;20119;-81
2023/03/03 10:12:44;;;;;;;13.38;7.85;;;;;;;;;;10630604;27;20391;-81
2023/03/03 10:17:49;;;;;;;18.13;10.23;;;;;;;;;;10629511;27;20023;-81
2023/03/03 10:22:50;;;;;;;12.23;7.15;;;;;;;;;;10635090;27;20029;-81
2023/03/03 10:27:59;;;;;;;13.80;8.70;;;;;;;;;;10641824;27;20038;-80
2023/03/03 10:33:29;;;;;;;11.20;7.00;;;;;;;;;;10627741;27;20031;-81
2023/03/03 10:38:36;;;;;;;12.07;7.47;;;;;;;;;;10620795;27;20035;-79
2023/03/03 10:43:54;;;;;;;10.88;6.45;;;;;;;;;;10627735;27;20434;-79
2023/03/03 10:48:55;;;;;;;9.95;6.13;;;;;;;;;;10629571;27;20101;-79
2023/03/03 10:54:09;;;;;;;11.82;7.03;;;;;;;;;;10630825;28;20545;-79
2023/03/03 10:59:10;;;;;;;9.65;6.18;;;;;;;;;;10653465;28;20031;-80
2023/03/03 11:04:20;;;;;;;10.98;6.50;;;;;;;;;;10648464;28;20028;-81
2023/03/03 11:09:54;;;;;;;9.90;6.10;;;;;;;;;;10635456;28;20090;-80
2023/03/03 11:14:55;;;;;;;13.45;8.88;;;;;;;;;;10599573;28;20104;-81
2023/03/03 11:19:56;;;;;;;11.75;6.70;;;;;;;;;;10634986;28;20031;-82
2023/03/03 11:24:57;;;;;;;;;;;;;;;;;;10634403;28;20426;-81
2023/03/03 11:29:58;;;;;;;11.95;7.07;;;;;;;;;;10633303;28;19903;-81
2023/03/03 11:35:18;;;;;;;12.25;7.20;;;;;;;;;;10634896;28;20015;-81
2023/03/03 11:40:28;;;;;;;10.40;6.07;;;;;;;;;;10641795;27;20035;-80
2023/03/03 11:45:33;;;;;;;10.35;6.03;;;;;;;;;;10641405;27;20172;-80
2023/03/03 11:50:43;;;;;;;15.70;9.88;;;;;;;;;;10643495;27;20381;-80
2023/03/03 11:55:47;;;;;;;9.65;6.15;;;;;;;;;;10642815;27;20041;-81
2023/03/03 12:00:48;;;;;;;8.25;4.93;;;;;;;;;;10643210;27;20102;-81
2023/03/03 12:06:13;;;;;;;10.82;6.60;;;;;;;;;;10646772;27;20019;-82
2023/03/03 12:11:13;;;;;;;17.15;10.40;;;;;;;;;;10643635;27;20093;-81
2023/03/03 12:16:33;;;;;;;12.82;7.63;;;;;;;;;;10643111;27;20037;-81
2023/03/03 12:21:37;;;;;;;8.88;5.35;;;;;;;;;;10649685;27;20019;-80
2023/03/03 12:26:46;;;;;;;10.18;5.93;;;;;;;;;;10643039;27;20086;-81
2023/03/03 12:31:54;;;;;;;11.60;7.63;;;;;;;;;;10642365;27;20031;-81
2023/03/03 12:37:09;;;;;;;8.77;5.32;;;;;;;;;;10643666;27;20034;-81
2023/03/03 12:42:10;;;;;;;17.77;10.00;;;;;;;;;;10643927;27;20027;-82
2023/03/03 12:47:25;;;;;;;8.93;5.65;;;;;;;;;;10640359;27;20038;-81
2023/03/03 12:52:31;;;;;;;18.42;9.68;;;;;;;;;;10640316;27;20042;-81
2023/03/03 12:57:56;;;;;;;9.40;6.07;;;;;;;;;;10644009;27;20190;-81
2023/03/03 13:03:03;;;;;;;7.65;4.80;;;;;;;;;;10636816;27;20102;-81
2023/03/03 13:08:19;;;;;;;11.02;6.93;;;;;;;;;;10646710;27;20031;-85
2023/03/03 13:13:20;;;;;;;10.15;5.90;;;;;;;;;;10654882;27;20048;-82
2023/03/03 13:18:34;;;;;;;13.43;8.18;;;;;;;;;;10669871;27;20053;-81
2023/03/03 13:23:41;;;;;;;14.02;8.55;;;;;;;;;;10659002;27;20042;-81
2023/03/03 13:29:01;;;;;;;11.27;7.05;;;;;;;;;;10639541;27;20478;-81
2023/03/03 13:34:03;;;;;;;10.80;6.68;;;;;;;;;;10641519;27;20019;-83
2023/03/03 13:39:34;;;;;;;16.67;11.57;;;;;;;;;;10624344;27;20027;-82
2023/03/03 13:44:41;;;;;;;10.85;7.28;;;;;;;;;;10626441;27;20039;-82
2023/03/03 13:50:04;;;;;;;8.30;5.53;;;;;;;;;;10640054;27;20031;-81
2023/03/03 13:55:25;;;;;;;8.77;5.72;;;;;;;;;;10640036;27;20370;-82
2023/03/03 14:00:26;;;;;;;7.25;5.00;;;;;;;;;;10640719;27;20384;-82
2023/03/03 14:05:35;;;;;;;12.77;7.97;;;;;;;;;;10641846;27;20362;-82
2023/03/03 14:10:46;;;;;;;17.08;10.70;;;;;;;;;;10648947;27;20149;-82
2023/03/03 14:15:56;;;;;;;10.75;5.85;;;;;;;;;;10646280;27;20158;-82
2023/03/03 14:21:05;;;;;;;11.38;7.22;;;;;;;;;;10639908;27;20031;-81
2023/03/03 14:26:08;;;;;;;7.97;4.88;;;;;;;;;;10640638;27;20027;-83
2023/03/03 14:31:30;;;;;;;9.93;6.68;;;;;;;;;;10639243;27;20019;-82
2023/03/03 14:36:32;;;;;;;11.13;6.45;;;;;;;;;;10668608;27;20031;-80
2023/03/03 14:41:35;;;;;;;10.98;6.35;;;;;;;;;;10648465;27;20054;-83
2023/03/03 14:46:38;;;;;;;16.33;11.30;;;;;;;;;;10640208;27;20039;-82
2023/03/03 14:51:39;;;;;;;16.08;11.18;;;;;;;;;;10639386;27;20037;-82
2023/03/03 14:56:54;;;;;;;9.27;5.90;;;;;;;;;;10640536;28;20464;-83
2023/03/03 15:02:01;;;;;;;10.70;6.45;;;;;;;;;;10638347;28;20208;-82
2023/03/03 15:07:19;;;;;;;8.68;5.45;;;;;;;;;;10638163;28;20385;-82
2023/03/03 15:12:24;;;;;;;8.82;5.95;;;;;;;;;;10640460;27;20090;-82
2023/03/03 15:17:28;;;;;;;8.02;5.25;;;;;;;;;;10645165;27;20027;-83
2023/03/03 15:22:36;;;;;;;9.45;5.63;;;;;;;;;;10644065;27;20473;-82
2023/03/03 15:27:51;;;;;;;7.32;5.00;;;;;;;;;;10648634;27;20118;-84
2023/03/03 15:32:55;;;;;;;8.43;5.50;;;;;;;;;;10644961;27;20094;-82
2023/03/03 15:37:59;;;;;;;11.32;6.93;;;;;;;;;;10647012;27;20034;-82
2023/03/03 15:43:19;;;;;;;5.78;4.32;;;;;;;;;;10644542;27;20019;-83
2023/03/03 15:48:24;;;;;;;6.73;4.97;;;;;;;;;;10646326;27;20047;-82
2023/03/03 15:53:25;;;;;;;9.25;6.35;;;;;;;;;;10651423;27;20043;-83
2023/03/03 15:58:33;;;;;;;10.48;5.45;;;;;;;;;;10653535;27;20027;-83
2023/03/03 16:03:37;;;;;;;8.52;5.60;;;;;;;;;;10649747;27;20088;-83
2023/03/03 16:08:57;;;;;;;7.90;5.53;;;;;;;;;;10650599;27;20072;-83
2023/03/03 16:14:01;;;;;;;8.88;5.57;;;;;;;;;;10646742;27;20027;-83
2023/03/03 16:19:21;;;;;;;8.48;5.00;;;;;;;;;;10642569;27;20048;-83
2023/03/03 16:24:28;;;;;;;9.05;6.13;;;;;;;;;;10642274;27;20027;-83
2023/03/03 16:29:33;;;;;;;9.95;6.25;;;;;;;;;;10644099;27;20048;-83
2023/03/03 16:34:40;;;;;;;9.27;5.97;;;;;;;;;;10646587;27;20023;-82
2023/03/03 16:39:51;;;;;;;10.07;6.32;;;;;;;;;;10653203;27;20056;-82
2023/03/03 16:44:58;;;;;;;7.18;4.80;;;;;;;;;;10662615;27;20054;-82
2023/03/03 16:50:25;;;;;;;7.60;5.03;;;;;;;;;;10645744;27;20043;-83
2023/03/03 16:55:33;;;;;;;8.75;6.07;;;;;;;;;;10618401;27;20031;-82
2023/03/03 17:00:41;;;;;;;9.35;6.30;;;;;;;;;;10644093;27;20515;-82
2023/03/03 17:05:53;;;;;;;10.10;6.75;;;;;;;;;;10647781;27;20025;-82
2023/03/03 17:11:14;;;;;;;8.45;5.97;;;;;;;;;;10649999;27;20027;-85
2023/03/03 17:16:34;;;;;;;9.63;6.45;;;;;;;;;;10629851;27;20143;-83
2023/03/03 17:21:34;;;;;;;9.38;6.03;;;;;;;;;;10642461;27;20027;-82
2023/03/03 17:26:35;;;;;;;;;;;;;;;;;;10641788;27;20461;-81
2023/03/03 17:31:36;;;;;;;12.00;7.85;;;;;;;;;;10639821;27;20258;-83
2023/03/03 17:36:37;;;;;;;;;;;;;;;;;;10638733;27;20503;-83
2023/03/03 17:41:43;;;;;;;8.65;6.10;;;;;;;;;;10650312;27;19926;-84
2023/03/03 17:46:45;;;;;;;7.35;5.28;;;;;;;;;;10648062;27;20396;-84
2023/03/03 17:51:45;;;;;;;;;;;;;;;;;;10643427;27;20027;-84
2023/03/03 17:56:52;;;;;;;13.25;8.32;;;;;;;;;;10644612;27;19914;-83
2023/03/03 18:02:05;;;;;;;9.57;6.22;;;;;;;;;;10655411;27;20057;-84
2023/03/03 18:07:26;;;;;;;12.80;7.25;;;;;;;;;;10641957;27;20430;-84
2023/03/03 18:12:30;;;;;;;10.17;7.47;;;;;;;;;;10644650;27;20019;-85
2023/03/03 18:17:35;;;;;;;8.98;6.20;;;;;;;;;;10646877;27;20710;-84
2023/03/03 18:22:43;;;;;;;13.00;9.25;;;;;;;;;;10660823;27;20037;-83
2023/03/03 18:27:45;;;;;;;12.10;7.90;;;;;;;;;;10669883;27;20031;-84
2023/03/03 18:32:55;;;;;;;11.85;8.15;;;;;;;;;;10637373;27;20023;-84
2023/03/03 18:37:57;;;;;;;8.93;6.83;;;;;;;;;;10637375;27;20023;-84
2023/03/03 18:42:58;;;;;;;7.25;5.18;;;;;;;;;;10637651;27;20019;-84
2023/03/03 18:48:09;;;;;;;9.82;6.38;;;;;;;;;;10637169;27;20044;-84
2023/03/03 18:53:15;;;;;;;10.50;7.47;;;;;;;;;;10638898;27;20034;-84
2023/03/03 18:58:16;;;;;;;10.30;7.10;;;;;;;;;;10638077;28;20031;-84
2023/03/03 19:03:17;;;;;;;;;;;;;;;;;;10639110;28;20544;-83
2023/03/03 19:08:23;;;;;;;12.30;8.00;;;;;;;;;;10639603;28;20318;-84
2023/03/03 19:13:33;;;;;;;8.82;5.75;;;;;;;;;;10638952;28;20370;-85
2023/03/03 19:18:55;;;;;;;10.40;7.43;;;;;;;;;;10640863;28;20011;-84
2023/03/03 19:24:00;;;;;;;15.45;10.50;;;;;;;;;;10641783;28;20572;-85
2023/03/03 19:29:01;;;;;;;10.82;8.00;;;;;;;;;;10644221;28;20019;-85
2023/03/03 19:34:02;;;;;;;;;;;;;;;;;;10644686;28;20031;-85
2023/03/03 19:39:26;;;;;;;14.50;10.13;;;;;;;;;;10659136;28;19927;-84
2023/03/03 19:44:37;;;;;;;13.43;9.15;;;;;;;;;;10663579;28;20023;-84
2023/03/03 19:49:57;;;;;;;10.77;7.72;;;;;;;;;;10656056;28;20031;-84
2023/03/03 19:55:10;;;;;;;11.68;8.43;;;;;;;;;;10667140;28;20034;-84
2023/03/03 20:00:14;;;;;;;13.48;9.75;;;;;;;;;;10673698;27;20034;-84
2023/03/03 20:05:15;;;;;;;13.23;9.20;;;;;;;;;;10670247;27;20023;-85
2023/03/03 20:10:16;;;;;;;;;;;;;;;;;;10651657;27;20057;-85
2023/03/03 20:15:19;;;;;;;15.60;10.75;;;;;;;;;;10649929;27;19993;-84
